sensor_id;sensor_type;location;lat;lon;timestamp;temperature;humidity
31799;DHT22;18374;51.136;3.502;2023-05-10T00:01:12;12.80;99.90
31799;DHT22;18374;51.136;3.502;2023-05-10T00:03:40;12.80;99.90
31799;DHT22;18374;51.136;3.502;2023-05-10T00:06:08;12.80;99.90
31799;DHT22;18374;51.136;3.502;2023-05-10T00:08:36;12.80;99.90
31799;DHT22;18374;51.136;3.502;2023-05-10T00:11:04;12.90;99.90
31799;DHT22;18374;51.136;3.502;2023-05-10T00:13:32;12.80;99.90
31799;DHT22;18374;51.136;3.502;2023-05-10T00:16:00;12.80;99.90
31799;DHT22;18374;51.136;3.502;2023-05-10T00:18:27;12.80;99.90
31799;DHT22;18374;51.136;3.502;2023-05-10T00:20:55;12.80;99.90
31799;DHT22;18374;51.136;3.502;2023-05-10T00:23:23;12.80;99.90
31799;DHT22;18374;51.136;3.502;2023-05-10T00:25:51;12.70;99.90
31799;DHT22;18374;51.136;3.502;2023-05-10T00:28:18;12.70;99.90
31799;DHT22;18374;51.136;3.502;2023-05-10T00:30:46;12.70;99.90
31799;DHT22;18374;51.136;3.502;2023-05-10T00:33:14;12.70;99.90
31799;DHT22;18374;51.136;3.502;2023-05-10T00:35:41;12.70;99.90
31799;DHT22;18374;51.136;3.502;2023-05-10T00:38:09;12.70;99.90
31799;DHT22;18374;51.136;3.502;2023-05-10T00:40:37;12.70;99.90
31799;DHT22;18374;51.136;3.502;2023-05-10T00:43:11;12.60;99.90
31799;DHT22;18374;51.136;3.502;2023-05-10T00:45:40;12.50;99.90
31799;DHT22;18374;51.136;3.502;2023-05-10T00:48:08;12.60;99.90
31799;DHT22;18374;51.136;3.502;2023-05-10T00:50:35;12.70;99.90
31799;DHT22;18374;51.136;3.502;2023-05-10T00:53:04;12.60;99.90
31799;DHT22;18374;51.136;3.502;2023-05-10T00:55:32;12.60;99.90
31799;DHT22;18374;51.136;3.502;2023-05-10T00:57:59;12.60;99.90
31799;DHT22;18374;51.136;3.502;2023-05-10T01:00:27;12.50;99.90
31799;DHT22;18374;51.136;3.502;2023-05-10T01:02:57;12.50;99.90
31799;DHT22;18374;51.136;3.502;2023-05-10T01:05:25;12.50;99.90
31799;DHT22;18374;51.136;3.502;2023-05-10T01:07:54;12.50;99.90
31799;DHT22;18374;51.136;3.502;2023-05-10T01:10:23;12.40;99.90
31799;DHT22;18374;51.136;3.502;2023-05-10T01:12:51;12.40;99.90
31799;DHT22;18374;51.136;3.502;2023-05-10T01:15:20;12.50;99.90
31799;DHT22;18374;51.136;3.502;2023-05-10T01:17:49;12.40;99.90
31799;DHT22;18374;51.136;3.502;2023-05-10T01:20:16;12.50;99.90
31799;DHT22;18374;51.136;3.502;2023-05-10T01:34:53;12.30;99.90
31799;DHT22;18374;51.136;3.502;2023-05-10T01:37:52;12.30;99.90
31799;DHT22;18374;51.136;3.502;2023-05-10T01:40:52;12.20;99.90
31799;DHT22;18374;51.136;3.502;2023-05-10T01:43:35;12.30;99.90
31799;DHT22;18374;51.136;3.502;2023-05-10T01:46:10;12.30;99.90
31799;DHT22;18374;51.136;3.502;2023-05-10T01:48:48;12.20;99.90
31799;DHT22;18374;51.136;3.502;2023-05-10T01:51:23;12.20;99.90
31799;DHT22;18374;51.136;3.502;2023-05-10T01:53:58;12.20;99.90
31799;DHT22;18374;51.136;3.502;2023-05-10T01:56:30;12.20;99.90
31799;DHT22;18374;51.136;3.502;2023-05-10T01:59:00;12.10;99.90
31799;DHT22;18374;51.136;3.502;2023-05-10T02:01:33;12.20;99.90
31799;DHT22;18374;51.136;3.502;2023-05-10T02:04:06;12.20;99.90
31799;DHT22;18374;51.136;3.502;2023-05-10T02:06:38;12.20;99.90
31799;DHT22;18374;51.136;3.502;2023-05-10T02:09:07;12.20;99.90
31799;DHT22;18374;51.136;3.502;2023-05-10T02:11:38;12.20;99.90
31799;DHT22;18374;51.136;3.502;2023-05-10T02:14:09;12.20;99.90
31799;DHT22;18374;51.136;3.502;2023-05-10T02:16:39;12.20;99.90
31799;DHT22;18374;51.136;3.502;2023-05-10T02:19:07;12.20;99.90
31799;DHT22;18374;51.136;3.502;2023-05-10T02:21:38;12.20;99.90
31799;DHT22;18374;51.136;3.502;2023-05-10T02:24:07;12.20;99.90
31799;DHT22;18374;51.136;3.502;2023-05-10T02:26:36;12.20;99.90
31799;DHT22;18374;51.136;3.502;2023-05-10T02:29:06;12.20;99.90
31799;DHT22;18374;51.136;3.502;2023-05-10T02:31:35;12.20;99.90
31799;DHT22;18374;51.136;3.502;2023-05-10T02:34:07;12.20;99.90
31799;DHT22;18374;51.136;3.502;2023-05-10T02:36:37;12.20;99.90
31799;DHT22;18374;51.136;3.502;2023-05-10T02:39:06;12.20;99.90
31799;DHT22;18374;51.136;3.502;2023-05-10T02:41:43;12.20;99.90
31799;DHT22;18374;51.136;3.502;2023-05-10T02:44:15;12.20;99.90
31799;DHT22;18374;51.136;3.502;2023-05-10T02:46:46;12.20;99.90
31799;DHT22;18374;51.136;3.502;2023-05-10T02:49:15;12.20;99.90
31799;DHT22;18374;51.136;3.502;2023-05-10T02:51:54;12.20;99.90
31799;DHT22;18374;51.136;3.502;2023-05-10T02:54:30;12.20;99.90
31799;DHT22;18374;51.136;3.502;2023-05-10T02:57:01;12.20;99.90
31799;DHT22;18374;51.136;3.502;2023-05-10T02:59:31;12.20;99.90
31799;DHT22;18374;51.136;3.502;2023-05-10T03:02:00;12.10;99.90
31799;DHT22;18374;51.136;3.502;2023-05-10T03:04:28;12.10;99.90
31799;DHT22;18374;51.136;3.502;2023-05-10T03:06:57;12.10;99.90
31799;DHT22;18374;51.136;3.502;2023-05-10T03:09:25;12.00;99.90
31799;DHT22;18374;51.136;3.502;2023-05-10T03:19:22;11.90;99.90
31799;DHT22;18374;51.136;3.502;2023-05-10T03:21:26;11.90;99.90
31799;DHT22;18374;51.136;3.502;2023-05-10T03:24:06;11.90;99.90
31799;DHT22;18374;51.136;3.502;2023-05-10T03:26:37;11.90;99.90
31799;DHT22;18374;51.136;3.502;2023-05-10T03:29:14;11.90;99.90
31799;DHT22;18374;51.136;3.502;2023-05-10T03:31:43;11.80;99.90
31799;DHT22;18374;51.136;3.502;2023-05-10T03:34:11;11.80;99.90
31799;DHT22;18374;51.136;3.502;2023-05-10T03:36:38;11.80;99.90
31799;DHT22;18374;51.136;3.502;2023-05-10T03:39:06;11.80;99.90
31799;DHT22;18374;51.136;3.502;2023-05-10T03:41:34;11.80;99.90
31799;DHT22;18374;51.136;3.502;2023-05-10T03:44:02;11.80;99.90
31799;DHT22;18374;51.136;3.502;2023-05-10T03:46:30;11.80;99.90
31799;DHT22;18374;51.136;3.502;2023-05-10T03:48:58;11.80;99.90
31799;DHT22;18374;51.136;3.502;2023-05-10T03:51:26;11.80;99.90
31799;DHT22;18374;51.136;3.502;2023-05-10T03:53:55;11.80;99.90
31799;DHT22;18374;51.136;3.502;2023-05-10T03:56:23;11.80;99.90
31799;DHT22;18374;51.136;3.502;2023-05-10T03:58:51;11.80;99.90
31799;DHT22;18374;51.136;3.502;2023-05-10T04:01:19;11.90;99.90
31799;DHT22;18374;51.136;3.502;2023-05-10T04:03:47;11.80;99.90
31799;DHT22;18374;51.136;3.502;2023-05-10T04:06:15;11.80;99.90
31799;DHT22;18374;51.136;3.502;2023-05-10T04:08:42;11.90;99.90
31799;DHT22;18374;51.136;3.502;2023-05-10T04:11:11;11.90;99.90
31799;DHT22;18374;51.136;3.502;2023-05-10T04:13:40;11.90;99.90
31799;DHT22;18374;51.136;3.502;2023-05-10T04:16:07;11.90;99.90
31799;DHT22;18374;51.136;3.502;2023-05-10T04:18:35;11.90;99.90
31799;DHT22;18374;51.136;3.502;2023-05-10T04:21:03;11.90;99.90
31799;DHT22;18374;51.136;3.502;2023-05-10T04:23:30;11.90;99.90
31799;DHT22;18374;51.136;3.502;2023-05-10T04:26:01;11.90;99.90
31799;DHT22;18374;51.136;3.502;2023-05-10T04:28:29;11.90;99.90
31799;DHT22;18374;51.136;3.502;2023-05-10T04:31:02;11.90;99.90
31799;DHT22;18374;51.136;3.502;2023-05-10T04:33:30;11.90;99.90
31799;DHT22;18374;51.136;3.502;2023-05-10T04:35:58;11.90;99.90
31799;DHT22;18374;51.136;3.502;2023-05-10T04:38:27;11.90;99.90
31799;DHT22;18374;51.136;3.502;2023-05-10T04:41:04;12.00;99.90
31799;DHT22;18374;51.136;3.502;2023-05-10T04:43:33;12.00;99.90
31799;DHT22;18374;51.136;3.502;2023-05-10T04:46:00;12.00;99.90
31799;DHT22;18374;51.136;3.502;2023-05-10T04:48:29;11.90;99.90
31799;DHT22;18374;51.136;3.502;2023-05-10T04:50:56;11.90;99.90
31799;DHT22;18374;51.136;3.502;2023-05-10T04:53:24;11.90;99.90
31799;DHT22;18374;51.136;3.502;2023-05-10T04:55:52;11.90;99.90
31799;DHT22;18374;51.136;3.502;2023-05-10T04:58:20;11.90;99.90
31799;DHT22;18374;51.136;3.502;2023-05-10T05:00:48;11.90;99.90
31799;DHT22;18374;51.136;3.502;2023-05-10T05:03:15;11.90;99.90
31799;DHT22;18374;51.136;3.502;2023-05-10T05:05:44;12.00;99.90
31799;DHT22;18374;51.136;3.502;2023-05-10T05:08:12;12.00;99.90
31799;DHT22;18374;51.136;3.502;2023-05-10T05:10:40;12.10;99.90
31799;DHT22;18374;51.136;3.502;2023-05-10T05:13:08;12.10;99.90
31799;DHT22;18374;51.136;3.502;2023-05-10T05:15:35;12.20;99.90
31799;DHT22;18374;51.136;3.502;2023-05-10T05:18:03;12.10;99.90
31799;DHT22;18374;51.136;3.502;2023-05-10T05:20:34;12.20;99.90
31799;DHT22;18374;51.136;3.502;2023-05-10T05:23:02;12.20;99.90
31799;DHT22;18374;51.136;3.502;2023-05-10T05:25:30;12.30;99.90
31799;DHT22;18374;51.136;3.502;2023-05-10T05:27:58;12.30;99.90
31799;DHT22;18374;51.136;3.502;2023-05-10T05:30:25;12.20;99.90
31799;DHT22;18374;51.136;3.502;2023-05-10T05:32:53;12.30;99.90
31799;DHT22;18374;51.136;3.502;2023-05-10T05:35:21;12.30;99.90
31799;DHT22;18374;51.136;3.502;2023-05-10T05:37:48;12.30;99.90
31799;DHT22;18374;51.136;3.502;2023-05-10T05:40:16;12.30;99.90
31799;DHT22;18374;51.136;3.502;2023-05-10T05:42:44;12.30;99.90
31799;DHT22;18374;51.136;3.502;2023-05-10T05:45:11;12.30;99.90
31799;DHT22;18374;51.136;3.502;2023-05-10T05:47:42;12.40;99.90
31799;DHT22;18374;51.136;3.502;2023-05-10T05:50:10;12.40;99.90
31799;DHT22;18374;51.136;3.502;2023-05-10T05:52:38;12.50;99.90
31799;DHT22;18374;51.136;3.502;2023-05-10T05:55:06;12.50;99.90
31799;DHT22;18374;51.136;3.502;2023-05-10T05:57:34;12.50;99.90
31799;DHT22;18374;51.136;3.502;2023-05-10T06:00:02;12.40;99.90
31799;DHT22;18374;51.136;3.502;2023-05-10T06:02:38;12.50;99.90
31799;DHT22;18374;51.136;3.502;2023-05-10T06:05:07;12.60;99.90
31799;DHT22;18374;51.136;3.502;2023-05-10T06:07:35;12.70;99.90
31799;DHT22;18374;51.136;3.502;2023-05-10T06:10:03;12.80;99.90
31799;DHT22;18374;51.136;3.502;2023-05-10T06:12:31;12.80;99.90
31799;DHT22;18374;51.136;3.502;2023-05-10T06:14:58;12.80;99.90
31799;DHT22;18374;51.136;3.502;2023-05-10T06:17:26;12.90;99.90
31799;DHT22;18374;51.136;3.502;2023-05-10T06:19:55;12.90;99.90
31799;DHT22;18374;51.136;3.502;2023-05-10T06:22:23;12.90;99.90
31799;DHT22;18374;51.136;3.502;2023-05-10T06:24:51;12.90;99.90
31799;DHT22;18374;51.136;3.502;2023-05-10T06:27:18;12.90;99.90
31799;DHT22;18374;51.136;3.502;2023-05-10T06:29:46;12.90;99.90
31799;DHT22;18374;51.136;3.502;2023-05-10T06:32:16;12.80;99.90
31799;DHT22;18374;51.136;3.502;2023-05-10T06:34:44;12.80;99.90
31799;DHT22;18374;51.136;3.502;2023-05-10T06:37:12;12.80;99.90
31799;DHT22;18374;51.136;3.502;2023-05-10T06:39:40;12.90;99.90
31799;DHT22;18374;51.136;3.502;2023-05-10T06:42:07;12.90;99.90
31799;DHT22;18374;51.136;3.502;2023-05-10T06:44:35;12.90;99.90
31799;DHT22;18374;51.136;3.502;2023-05-10T06:47:03;13.00;99.90
31799;DHT22;18374;51.136;3.502;2023-05-10T06:49:31;13.10;99.90
31799;DHT22;18374;51.136;3.502;2023-05-10T06:51:58;13.00;99.90
31799;DHT22;18374;51.136;3.502;2023-05-10T06:54:26;13.20;99.90
31799;DHT22;18374;51.136;3.502;2023-05-10T06:56:54;13.20;99.90
31799;DHT22;18374;51.136;3.502;2023-05-10T06:59:22;13.30;99.90
31799;DHT22;18374;51.136;3.502;2023-05-10T07:01:50;13.40;99.90
31799;DHT22;18374;51.136;3.502;2023-05-10T07:04:17;13.40;99.90
31799;DHT22;18374;51.136;3.502;2023-05-10T07:06:45;13.40;99.90
31799;DHT22;18374;51.136;3.502;2023-05-10T07:09:13;13.50;99.90
31799;DHT22;18374;51.136;3.502;2023-05-10T07:11:41;13.60;99.90
31799;DHT22;18374;51.136;3.502;2023-05-10T07:14:09;13.70;99.90
31799;DHT22;18374;51.136;3.502;2023-05-10T07:16:36;13.80;99.90
31799;DHT22;18374;51.136;3.502;2023-05-10T07:19:05;13.90;99.90
31799;DHT22;18374;51.136;3.502;2023-05-10T07:21:32;13.90;99.90
31799;DHT22;18374;51.136;3.502;2023-05-10T07:24:00;13.80;99.90
31799;DHT22;18374;51.136;3.502;2023-05-10T07:26:28;13.80;99.90
31799;DHT22;18374;51.136;3.502;2023-05-10T07:28:56;13.80;99.90
31799;DHT22;18374;51.136;3.502;2023-05-10T07:31:23;13.70;99.90
31799;DHT22;18374;51.136;3.502;2023-05-10T07:33:51;13.90;99.90
31799;DHT22;18374;51.136;3.502;2023-05-10T07:36:19;14.20;99.90
31799;DHT22;18374;51.136;3.502;2023-05-10T07:38:47;14.40;99.90
31799;DHT22;18374;51.136;3.502;2023-05-10T07:41:14;14.20;99.90
31799;DHT22;18374;51.136;3.502;2023-05-10T07:43:42;14.10;99.90
31799;DHT22;18374;51.136;3.502;2023-05-10T07:46:10;14.00;99.90
31799;DHT22;18374;51.136;3.502;2023-05-10T07:48:38;14.00;99.90
31799;DHT22;18374;51.136;3.502;2023-05-10T07:51:06;14.00;99.90
31799;DHT22;18374;51.136;3.502;2023-05-10T07:53:37;14.00;99.90
31799;DHT22;18374;51.136;3.502;2023-05-10T07:56:26;14.10;99.90
31799;DHT22;18374;51.136;3.502;2023-05-10T07:59:00;14.00;99.90
31799;DHT22;18374;51.136;3.502;2023-05-10T08:01:33;14.00;99.90
31799;DHT22;18374;51.136;3.502;2023-05-10T08:04:02;14.10;99.90
31799;DHT22;18374;51.136;3.502;2023-05-10T08:06:30;14.10;99.90
31799;DHT22;18374;51.136;3.502;2023-05-10T08:08:57;14.20;99.90
31799;DHT22;18374;51.136;3.502;2023-05-10T08:11:25;14.30;99.90
31799;DHT22;18374;51.136;3.502;2023-05-10T08:13:55;14.40;99.90
31799;DHT22;18374;51.136;3.502;2023-05-10T08:16:22;14.50;99.90
31799;DHT22;18374;51.136;3.502;2023-05-10T08:18:50;14.50;99.90
31799;DHT22;18374;51.136;3.502;2023-05-10T08:21:18;14.60;99.90
31799;DHT22;18374;51.136;3.502;2023-05-10T08:23:46;14.80;99.90
31799;DHT22;18374;51.136;3.502;2023-05-10T08:26:13;14.80;99.90
31799;DHT22;18374;51.136;3.502;2023-05-10T08:28:41;15.00;99.90
31799;DHT22;18374;51.136;3.502;2023-05-10T08:31:09;15.30;99.90
31799;DHT22;18374;51.136;3.502;2023-05-10T08:33:37;15.30;99.90
31799;DHT22;18374;51.136;3.502;2023-05-10T08:36:05;15.50;99.90
31799;DHT22;18374;51.136;3.502;2023-05-10T08:38:33;15.60;99.90
31799;DHT22;18374;51.136;3.502;2023-05-10T08:41:02;15.90;99.90
31799;DHT22;18374;51.136;3.502;2023-05-10T08:43:31;16.30;99.90
31799;DHT22;18374;51.136;3.502;2023-05-10T08:46:02;16.40;99.90
31799;DHT22;18374;51.136;3.502;2023-05-10T08:48:34;16.40;99.90
31799;DHT22;18374;51.136;3.502;2023-05-10T08:51:03;16.30;99.90
31799;DHT22;18374;51.136;3.502;2023-05-10T08:53:33;16.30;99.90
31799;DHT22;18374;51.136;3.502;2023-05-10T08:56:04;16.30;99.90
31799;DHT22;18374;51.136;3.502;2023-05-10T08:58:32;16.80;99.90
31799;DHT22;18374;51.136;3.502;2023-05-10T09:01:01;17.00;99.90
31799;DHT22;18374;51.136;3.502;2023-05-10T09:03:29;16.90;99.90
31799;DHT22;18374;51.136;3.502;2023-05-10T09:05:58;16.70;99.90
31799;DHT22;18374;51.136;3.502;2023-05-10T09:08:26;16.20;99.90
31799;DHT22;18374;51.136;3.502;2023-05-10T09:10:55;15.80;99.90
31799;DHT22;18374;51.136;3.502;2023-05-10T09:13:23;15.70;99.90
31799;DHT22;18374;51.136;3.502;2023-05-10T09:15:53;15.90;99.90
31799;DHT22;18374;51.136;3.502;2023-05-10T09:18:20;16.10;99.90
31799;DHT22;18374;51.136;3.502;2023-05-10T09:20:49;16.50;99.90
31799;DHT22;18374;51.136;3.502;2023-05-10T09:23:16;16.90;99.90
31799;DHT22;18374;51.136;3.502;2023-05-10T09:25:44;17.20;99.90
31799;DHT22;18374;51.136;3.502;2023-05-10T09:28:12;17.50;99.90
31799;DHT22;18374;51.136;3.502;2023-05-10T09:30:40;17.90;99.90
31799;DHT22;18374;51.136;3.502;2023-05-10T09:33:10;18.10;99.90
31799;DHT22;18374;51.136;3.502;2023-05-10T09:35:37;18.20;99.90
31799;DHT22;18374;51.136;3.502;2023-05-10T09:38:07;18.10;99.90
31799;DHT22;18374;51.136;3.502;2023-05-10T09:40:35;17.90;99.90
31799;DHT22;18374;51.136;3.502;2023-05-10T09:43:03;17.80;99.90
31799;DHT22;18374;51.136;3.502;2023-05-10T09:45:35;17.60;99.90
31799;DHT22;18374;51.136;3.502;2023-05-10T09:48:06;17.50;99.90
31799;DHT22;18374;51.136;3.502;2023-05-10T09:50:34;17.40;99.90
31799;DHT22;18374;51.136;3.502;2023-05-10T09:53:03;17.20;99.90
31799;DHT22;18374;51.136;3.502;2023-05-10T09:58:05;16.40;99.90
31799;DHT22;18374;51.136;3.502;2023-05-10T10:00:40;16.20;99.90
31799;DHT22;18374;51.136;3.502;2023-05-10T10:03:14;16.10;99.90
31799;DHT22;18374;51.136;3.502;2023-05-10T10:05:44;15.80;99.90
31799;DHT22;18374;51.136;3.502;2023-05-10T10:08:13;15.90;99.90
31799;DHT22;18374;51.136;3.502;2023-05-10T10:10:42;16.00;99.90
31799;DHT22;18374;51.136;3.502;2023-05-10T10:13:13;16.30;99.90
31799;DHT22;18374;51.136;3.502;2023-05-10T10:15:42;16.70;99.90
31799;DHT22;18374;51.136;3.502;2023-05-10T10:18:14;17.20;99.90
31799;DHT22;18374;51.136;3.502;2023-05-10T10:20:43;17.50;99.90
31799;DHT22;18374;51.136;3.502;2023-05-10T10:23:10;17.60;99.90
31799;DHT22;18374;51.136;3.502;2023-05-10T10:25:38;17.90;99.90
31799;DHT22;18374;51.136;3.502;2023-05-10T10:28:30;18.00;99.90
31799;DHT22;18374;51.136;3.502;2023-05-10T10:34:26;17.80;99.90
31799;DHT22;18374;51.136;3.502;2023-05-10T10:36:56;17.50;99.90
31799;DHT22;18374;51.136;3.502;2023-05-10T10:39:24;17.10;99.90
31799;DHT22;18374;51.136;3.502;2023-05-10T10:41:54;16.90;99.90
31799;DHT22;18374;51.136;3.502;2023-05-10T10:57:53;16.30;99.90
31799;DHT22;18374;51.136;3.502;2023-05-10T11:00:30;16.30;99.90
31799;DHT22;18374;51.136;3.502;2023-05-10T11:03:09;16.20;99.90
31799;DHT22;18374;51.136;3.502;2023-05-10T11:05:47;16.00;99.90
31799;DHT22;18374;51.136;3.502;2023-05-10T11:08:27;15.80;99.90
31799;DHT22;18374;51.136;3.502;2023-05-10T11:13:42;15.70;99.90
31799;DHT22;18374;51.136;3.502;2023-05-10T11:16:24;15.70;99.90
31799;DHT22;18374;51.136;3.502;2023-05-10T11:19:13;15.80;99.90
31799;DHT22;18374;51.136;3.502;2023-05-10T11:22:12;15.80;99.90
31799;DHT22;18374;51.136;3.502;2023-05-10T11:24:56;15.70;99.90
31799;DHT22;18374;51.136;3.502;2023-05-10T11:27:25;15.70;99.90
31799;DHT22;18374;51.136;3.502;2023-05-10T11:29:53;15.60;99.90
31799;DHT22;18374;51.136;3.502;2023-05-10T11:32:22;15.50;99.90
31799;DHT22;18374;51.136;3.502;2023-05-10T11:34:50;15.60;99.90
31799;DHT22;18374;51.136;3.502;2023-05-10T11:37:18;15.60;99.90
31799;DHT22;18374;51.136;3.502;2023-05-10T11:39:46;15.60;99.90
31799;DHT22;18374;51.136;3.502;2023-05-10T11:42:14;15.60;99.90
31799;DHT22;18374;51.136;3.502;2023-05-10T11:44:45;15.60;99.90
31799;DHT22;18374;51.136;3.502;2023-05-10T11:47:14;15.60;99.90
31799;DHT22;18374;51.136;3.502;2023-05-10T11:49:45;15.60;99.90
31799;DHT22;18374;51.136;3.502;2023-05-10T11:52:13;15.60;99.90
31799;DHT22;18374;51.136;3.502;2023-05-10T11:54:54;15.80;99.90
31799;DHT22;18374;51.136;3.502;2023-05-10T11:57:26;16.00;99.90
31799;DHT22;18374;51.136;3.502;2023-05-10T11:59:58;16.10;99.90
31799;DHT22;18374;51.136;3.502;2023-05-10T12:02:28;16.10;99.90
31799;DHT22;18374;51.136;3.502;2023-05-10T12:04:56;16.20;99.90
31799;DHT22;18374;51.136;3.502;2023-05-10T12:07:26;16.10;99.90
31799;DHT22;18374;51.136;3.502;2023-05-10T12:10:06;16.20;99.90
31799;DHT22;18374;51.136;3.502;2023-05-10T12:12:40;16.00;99.90
31799;DHT22;18374;51.136;3.502;2023-05-10T12:15:20;15.80;99.90
31799;DHT22;18374;51.136;3.502;2023-05-10T12:17:50;16.10;99.90
31799;DHT22;18374;51.136;3.502;2023-05-10T12:20:23;16.40;99.90
31799;DHT22;18374;51.136;3.502;2023-05-10T12:22:52;16.50;99.90
31799;DHT22;18374;51.136;3.502;2023-05-10T12:25:24;16.30;99.90
31799;DHT22;18374;51.136;3.502;2023-05-10T12:27:58;15.90;99.90
31799;DHT22;18374;51.136;3.502;2023-05-10T12:30:31;16.10;99.90
31799;DHT22;18374;51.136;3.502;2023-05-10T12:33:01;15.90;99.90
31799;DHT22;18374;51.136;3.502;2023-05-10T12:35:31;16.00;99.90
31799;DHT22;18374;51.136;3.502;2023-05-10T12:37:59;16.10;99.90
31799;DHT22;18374;51.136;3.502;2023-05-10T12:40:27;16.30;99.90
31799;DHT22;18374;51.136;3.502;2023-05-10T12:42:54;16.40;99.90
31799;DHT22;18374;51.136;3.502;2023-05-10T12:45:22;16.30;99.90
31799;DHT22;18374;51.136;3.502;2023-05-10T12:47:50;16.40;99.90
31799;DHT22;18374;51.136;3.502;2023-05-10T12:50:18;16.50;99.90
31799;DHT22;18374;51.136;3.502;2023-05-10T12:52:45;16.70;99.90
31799;DHT22;18374;51.136;3.502;2023-05-10T12:55:13;16.80;99.90
31799;DHT22;18374;51.136;3.502;2023-05-10T12:57:41;16.80;99.90
31799;DHT22;18374;51.136;3.502;2023-05-10T13:00:09;17.00;99.90
31799;DHT22;18374;51.136;3.502;2023-05-10T13:02:37;17.30;99.90
31799;DHT22;18374;51.136;3.502;2023-05-10T13:05:05;17.60;99.90
31799;DHT22;18374;51.136;3.502;2023-05-10T13:07:33;17.40;99.90
31799;DHT22;18374;51.136;3.502;2023-05-10T13:10:01;17.60;99.90
31799;DHT22;18374;51.136;3.502;2023-05-10T13:12:29;17.90;99.90
31799;DHT22;18374;51.136;3.502;2023-05-10T13:14:57;17.50;99.90
31799;DHT22;18374;51.136;3.502;2023-05-10T13:17:25;17.00;99.90
31799;DHT22;18374;51.136;3.502;2023-05-10T13:19:53;16.60;99.90
31799;DHT22;18374;51.136;3.502;2023-05-10T13:22:21;16.30;99.90
31799;DHT22;18374;51.136;3.502;2023-05-10T13:25:05;16.20;99.90
31799;DHT22;18374;51.136;3.502;2023-05-10T13:27:33;16.10;99.90
31799;DHT22;18374;51.136;3.502;2023-05-10T13:30:02;16.20;99.90
31799;DHT22;18374;51.136;3.502;2023-05-10T13:32:31;16.30;99.90
31799;DHT22;18374;51.136;3.502;2023-05-10T13:34:59;16.40;99.90
31799;DHT22;18374;51.136;3.502;2023-05-10T13:37:26;16.30;99.90
31799;DHT22;18374;51.136;3.502;2023-05-10T13:39:54;16.30;99.90
31799;DHT22;18374;51.136;3.502;2023-05-10T13:42:23;16.40;99.90
31799;DHT22;18374;51.136;3.502;2023-05-10T13:44:51;16.60;99.90
31799;DHT22;18374;51.136;3.502;2023-05-10T13:47:18;16.70;99.90
31799;DHT22;18374;51.136;3.502;2023-05-10T13:49:46;16.80;99.90
31799;DHT22;18374;51.136;3.502;2023-05-10T13:52:14;16.90;99.90
31799;DHT22;18374;51.136;3.502;2023-05-10T13:54:42;17.10;99.90
31799;DHT22;18374;51.136;3.502;2023-05-10T13:57:10;16.90;99.90
31799;DHT22;18374;51.136;3.502;2023-05-10T13:59:40;16.60;99.90
31799;DHT22;18374;51.136;3.502;2023-05-10T14:02:07;16.40;99.90
31799;DHT22;18374;51.136;3.502;2023-05-10T14:04:35;16.30;99.90
31799;DHT22;18374;51.136;3.502;2023-05-10T14:07:03;16.20;99.90
31799;DHT22;18374;51.136;3.502;2023-05-10T14:09:30;16.30;99.90
31799;DHT22;18374;51.136;3.502;2023-05-10T14:11:58;16.30;99.90
31799;DHT22;18374;51.136;3.502;2023-05-10T14:14:26;16.40;99.90
31799;DHT22;18374;51.136;3.502;2023-05-10T14:16:55;16.70;99.90
31799;DHT22;18374;51.136;3.502;2023-05-10T14:19:23;17.20;99.90
31799;DHT22;18374;51.136;3.502;2023-05-10T14:21:51;17.60;99.90
31799;DHT22;18374;51.136;3.502;2023-05-10T14:24:19;18.20;99.90
31799;DHT22;18374;51.136;3.502;2023-05-10T14:26:47;18.80;99.90
31799;DHT22;18374;51.136;3.502;2023-05-10T14:29:14;18.90;99.90
31799;DHT22;18374;51.136;3.502;2023-05-10T14:31:42;19.20;99.90
31799;DHT22;18374;51.136;3.502;2023-05-10T14:34:10;19.00;99.90
31799;DHT22;18374;51.136;3.502;2023-05-10T14:36:38;18.60;99.90
31799;DHT22;18374;51.136;3.502;2023-05-10T14:39:06;17.90;99.90
31799;DHT22;18374;51.136;3.502;2023-05-10T14:41:33;17.30;99.90
31799;DHT22;18374;51.136;3.502;2023-05-10T14:44:01;17.10;99.90
31799;DHT22;18374;51.136;3.502;2023-05-10T14:46:30;17.10;99.90
31799;DHT22;18374;51.136;3.502;2023-05-10T14:48:58;17.00;99.90
31799;DHT22;18374;51.136;3.502;2023-05-10T14:51:26;17.00;99.90
31799;DHT22;18374;51.136;3.502;2023-05-10T14:53:53;17.10;99.90
31799;DHT22;18374;51.136;3.502;2023-05-10T14:56:21;17.10;99.90
31799;DHT22;18374;51.136;3.502;2023-05-10T14:58:50;17.10;99.90
31799;DHT22;18374;51.136;3.502;2023-05-10T15:01:18;17.00;99.90
31799;DHT22;18374;51.136;3.502;2023-05-10T15:03:46;16.80;99.90
31799;DHT22;18374;51.136;3.502;2023-05-10T15:06:15;16.80;99.90
31799;DHT22;18374;51.136;3.502;2023-05-10T15:08:43;16.70;99.90
31799;DHT22;18374;51.136;3.502;2023-05-10T15:11:11;16.50;99.90
31799;DHT22;18374;51.136;3.502;2023-05-10T15:13:39;16.50;99.90
31799;DHT22;18374;51.136;3.502;2023-05-10T15:16:07;16.40;99.90
31799;DHT22;18374;51.136;3.502;2023-05-10T15:18:34;16.40;99.90
31799;DHT22;18374;51.136;3.502;2023-05-10T15:21:02;16.40;99.90
31799;DHT22;18374;51.136;3.502;2023-05-10T15:23:30;16.40;99.90
31799;DHT22;18374;51.136;3.502;2023-05-10T15:26:00;16.50;99.90
31799;DHT22;18374;51.136;3.502;2023-05-10T15:28:28;16.50;99.90
31799;DHT22;18374;51.136;3.502;2023-05-10T15:30:56;16.50;99.90
31799;DHT22;18374;51.136;3.502;2023-05-10T15:33:23;16.50;99.90
31799;DHT22;18374;51.136;3.502;2023-05-10T15:35:52;16.40;99.90
31799;DHT22;18374;51.136;3.502;2023-05-10T15:38:20;16.30;99.90
31799;DHT22;18374;51.136;3.502;2023-05-10T15:40:48;16.30;99.90
31799;DHT22;18374;51.136;3.502;2023-05-10T15:43:16;16.30;99.90
31799;DHT22;18374;51.136;3.502;2023-05-10T15:45:44;16.10;99.90
31799;DHT22;18374;51.136;3.502;2023-05-10T15:48:11;16.10;99.90
31799;DHT22;18374;51.136;3.502;2023-05-10T15:50:39;16.00;99.90
31799;DHT22;18374;51.136;3.502;2023-05-10T15:53:07;16.10;99.90
31799;DHT22;18374;51.136;3.502;2023-05-10T15:55:35;16.10;99.90
31799;DHT22;18374;51.136;3.502;2023-05-10T15:58:03;16.00;99.90
31799;DHT22;18374;51.136;3.502;2023-05-10T16:00:31;16.10;99.90
31799;DHT22;18374;51.136;3.502;2023-05-10T16:02:59;16.20;99.90
31799;DHT22;18374;51.136;3.502;2023-05-10T16:05:27;16.10;99.90
31799;DHT22;18374;51.136;3.502;2023-05-10T16:07:59;16.10;99.90
31799;DHT22;18374;51.136;3.502;2023-05-10T16:10:31;16.00;99.90
31799;DHT22;18374;51.136;3.502;2023-05-10T16:12:59;16.10;99.90
31799;DHT22;18374;51.136;3.502;2023-05-10T16:15:28;16.10;99.90
31799;DHT22;18374;51.136;3.502;2023-05-10T16:17:56;16.00;99.90
31799;DHT22;18374;51.136;3.502;2023-05-10T16:20:25;16.10;99.90
31799;DHT22;18374;51.136;3.502;2023-05-10T16:22:53;16.20;99.90
31799;DHT22;18374;51.136;3.502;2023-05-10T16:25:20;16.30;99.90